createdAt,value
2018-12-25T00:00:01.301Z,6.60
2018-12-25T00:02:29.733Z,7.47
2018-12-25T00:04:58.265Z,7.30
2018-12-25T00:07:26.665Z,7.47
2018-12-25T00:09:55.082Z,6.62
2018-12-25T00:12:23.763Z,6.20
2018-12-25T00:14:52.185Z,7.25
2018-12-25T00:17:20.846Z,7.35
2018-12-25T00:19:49.306Z,7.25
2018-12-25T00:22:17.738Z,7.25
2018-12-25T00:24:46.416Z,7.65
2018-12-25T00:27:14.843Z,7.40
2018-12-25T00:29:43.268Z,7.55
2018-12-25T00:32:11.698Z,6.72
2018-12-25T00:34:40.124Z,7.20
2018-12-25T00:37:08.542Z,6.45
2018-12-25T00:39:37.215Z,5.97
2018-12-25T00:42:05.646Z,6.60
2018-12-25T00:44:34.066Z,6.20
2018-12-25T00:47:02.494Z,6.37
2018-12-25T00:49:30.916Z,6.42
2018-12-25T00:51:59.346Z,6.22
2018-12-25T00:54:27.775Z,7.72
2018-12-25T00:56:56.454Z,6.22
2018-12-25T00:59:24.874Z,6.78
2018-12-25T01:01:53.512Z,5.75
2018-12-25T01:04:21.969Z,7.63
2018-12-25T01:06:50.397Z,6.80
2018-12-25T01:09:19.062Z,6.10
2018-12-25T01:11:47.494Z,7.75
2018-12-25T01:14:16.154Z,6.40
2018-12-25T01:16:44.578Z,6.17
2018-12-25T01:19:13.209Z,7.15
2018-12-25T01:21:41.684Z,6.85
2018-12-25T01:24:10.102Z,6.90
2018-12-25T01:26:38.529Z,6.25
2018-12-25T01:29:07.166Z,6.95
2018-12-25T01:31:35.902Z,7.95
2018-12-25T01:34:04.575Z,7.70
2018-12-25T01:36:33.236Z,6.80
2018-12-25T01:39:01.770Z,8.78
2018-12-25T01:41:30.190Z,7.03
2018-12-25T01:43:58.622Z,7.58
2018-12-25T01:46:27.298Z,8.90
2018-12-25T01:48:55.975Z,8.33
2018-12-25T01:51:24.654Z,8.33
2018-12-25T01:53:53.125Z,8.98
2018-12-25T01:56:21.550Z,8.40
2018-12-25T01:58:50.230Z,8.40
2018-12-25T02:01:18.650Z,9.08
2018-12-25T02:03:47.093Z,7.87
2018-12-25T02:06:15.525Z,9.68
2018-12-25T02:08:43.954Z,9.48
2018-12-25T02:11:12.595Z,9.23
2018-12-25T02:13:41.315Z,9.20
2018-12-25T02:16:09.741Z,10.13
2018-12-25T02:18:38.165Z,11.10
2018-12-25T02:21:06.586Z,13.40
2018-12-25T02:23:35.017Z,9.95
2018-12-25T02:26:04.229Z,10.90
2018-12-25T02:28:32.662Z,9.48
2018-12-25T02:31:01.301Z,10.25
2018-12-25T02:33:29.774Z,10.38
2018-12-25T02:35:58.189Z,10.45
2018-12-25T02:38:26.617Z,11.10
2018-12-25T02:40:55.317Z,11.50
2018-12-25T02:43:23.769Z,11.78
2018-12-25T02:45:52.446Z,12.43
2018-12-25T02:48:20.881Z,12.00
2018-12-25T02:50:49.308Z,11.18
2018-12-25T02:53:17.734Z,12.05
2018-12-25T02:55:46.406Z,12.28
2018-12-25T02:58:14.826Z,12.43
2018-12-25T03:00:43.258Z,12.45
2018-12-25T03:03:11.922Z,12.00
2018-12-25T03:05:40.566Z,12.30
2018-12-25T03:08:09.293Z,12.43
2018-12-25T03:10:37.971Z,11.20
2018-12-25T03:13:06.774Z,11.38
2018-12-25T03:15:35.241Z,10.90
2018-12-25T03:18:03.886Z,11.50
2018-12-25T03:20:32.353Z,12.30
2018-12-25T03:23:01.027Z,10.10
2018-12-25T03:25:29.455Z,10.15
2018-12-25T03:27:57.899Z,10.55
2018-12-25T03:30:26.568Z,10.00
2018-12-25T03:32:55.281Z,10.70
2018-12-25T03:35:23.737Z,10.38
2018-12-25T03:37:52.169Z,8.85
2018-12-25T03:40:20.600Z,10.45
2018-12-25T03:42:49.018Z,10.70
2018-12-25T03:45:17.446Z,9.40
2018-12-25T03:47:45.868Z,9.38
2018-12-25T03:50:14.293Z,11.78
2018-12-25T03:52:42.718Z,9.58
2018-12-25T03:55:11.144Z,9.18
2018-12-25T03:57:39.582Z,9.80
2018-12-25T04:00:08.154Z,10.75
2018-12-25T04:02:36.573Z,10.18
2018-12-25T04:05:05.634Z,9.80
2018-12-25T04:07:34.282Z,9.05
2018-12-25T04:10:03.010Z,9.00
2018-12-25T04:12:31.435Z,8.68
2018-12-25T04:14:59.857Z,9.68
2018-12-25T04:17:28.342Z,9.60
2018-12-25T04:19:56.790Z,7.45
2018-12-25T04:22:25.409Z,8.45
2018-12-25T04:24:54.102Z,8.55
2018-12-25T04:27:22.556Z,8.03
2018-12-25T04:29:50.969Z,7.42
2018-12-25T04:32:19.407Z,8.75
2018-12-25T04:34:47.822Z,9.70
2018-12-25T04:37:16.503Z,8.15
2018-12-25T04:39:45.041Z,8.73
2018-12-25T04:42:13.467Z,8.78
2018-12-25T04:44:42.133Z,8.25
2018-12-25T04:47:10.556Z,10.10
2018-12-25T04:49:39.223Z,9.25
2018-12-25T04:52:07.871Z,8.38
2018-12-25T04:54:36.544Z,8.28
2018-12-25T04:57:05.234Z,7.87
2018-12-25T04:59:33.685Z,8.63
2018-12-25T05:02:02.141Z,7.28
2018-12-25T05:04:30.557Z,7.70
2018-12-25T05:06:58.979Z,7.80
2018-12-25T05:09:27.398Z,8.90
2018-12-25T05:11:55.831Z,9.30
2018-12-25T05:14:24.237Z,8.98
2018-12-25T05:16:52.661Z,9.15
2018-12-25T05:19:21.086Z,8.80
2018-12-25T05:21:49.517Z,9.70
2018-12-25T05:24:18.177Z,9.90
2018-12-25T05:26:46.813Z,9.50
2018-12-25T05:29:15.273Z,9.15
2018-12-25T05:31:43.709Z,9.13
2018-12-25T05:34:12.126Z,9.33
2018-12-25T05:36:40.557Z,9.80
2018-12-25T05:39:08.973Z,9.73
2018-12-25T05:41:37.407Z,9.25
2018-12-25T05:44:06.079Z,9.28
2018-12-25T05:46:34.510Z,10.25
2018-12-25T05:49:02.929Z,9.70
2018-12-25T05:51:31.355Z,8.75
2018-12-25T05:53:59.770Z,8.55
2018-12-25T05:56:28.201Z,8.70
2018-12-25T05:58:56.612Z,9.18
2018-12-25T06:01:25.058Z,9.88
2018-12-25T06:03:53.481Z,10.65
2018-12-25T06:06:21.906Z,10.20
2018-12-25T06:08:50.330Z,9.80
2018-12-25T06:11:18.751Z,10.30
2018-12-25T06:13:47.178Z,9.18
2018-12-25T06:16:15.610Z,8.75
2018-12-25T06:18:44.058Z,7.97
2018-12-25T06:21:12.473Z,8.88
2018-12-25T06:23:40.925Z,8.38
2018-12-25T06:26:09.349Z,8.48
2018-12-25T06:28:37.775Z,8.40
2018-12-25T06:31:06.191Z,10.18
2018-12-25T06:33:34.620Z,9.03
2018-12-25T06:36:03.125Z,9.00
2018-12-25T06:38:31.772Z,8.55
2018-12-25T06:41:00.242Z,10.20
2018-12-25T06:43:28.692Z,8.83
2018-12-25T06:45:57.101Z,9.70
2018-12-25T06:48:25.535Z,9.98
2018-12-25T06:50:54.240Z,10.68
2018-12-25T06:53:22.704Z,10.55
2018-12-25T06:55:51.553Z,9.00
2018-12-25T06:58:20.098Z,9.25
2018-12-25T07:00:48.585Z,9.45
2018-12-25T07:03:17.233Z,9.53
2018-12-25T07:05:45.685Z,8.20
2018-12-25T07:08:14.337Z,8.78
2018-12-25T07:10:42.786Z,8.90
2018-12-25T07:13:11.281Z,9.03
2018-12-25T07:15:39.954Z,8.90
2018-12-25T07:18:08.573Z,9.15
2018-12-25T07:20:37.058Z,8.73
2018-12-25T07:23:05.793Z,8.98
2018-12-25T07:25:34.471Z,9.15
2018-12-25T07:28:02.946Z,8.30
2018-12-25T07:30:31.488Z,9.15
2018-12-25T07:32:59.898Z,8.83
2018-12-25T07:35:28.324Z,8.63
2018-12-25T07:37:56.738Z,8.55
2018-12-25T07:40:25.165Z,9.80
2018-12-25T07:42:53.588Z,9.50
2018-12-25T07:45:22.234Z,9.85
2018-12-25T07:47:50.689Z,9.93
2018-12-25T07:50:19.371Z,8.30
2018-12-25T07:52:47.788Z,9.73
2018-12-25T07:55:16.462Z,9.98
2018-12-25T07:57:44.877Z,9.30
2018-12-25T08:00:13.642Z,10.13
2018-12-25T08:02:42.097Z,8.88
2018-12-25T08:05:10.530Z,9.43
2018-12-25T08:07:38.950Z,9.53
2018-12-25T08:10:07.376Z,12.63
2018-12-25T08:12:35.798Z,9.50
2018-12-25T08:15:04.473Z,10.05
2018-12-25T08:17:33.158Z,9.58
2018-12-25T08:20:01.588Z,10.32
2018-12-25T08:22:30.011Z,10.05
2018-12-25T08:24:58.650Z,10.28
2018-12-25T08:27:27.105Z,9.85
2018-12-25T08:29:55.549Z,8.63
2018-12-25T08:32:24.009Z,8.60
2018-12-25T08:34:52.434Z,9.30
2018-12-25T08:37:21.105Z,8.40
2018-12-25T08:39:49.528Z,8.25
2018-12-25T08:42:17.949Z,9.65
2018-12-25T08:44:46.370Z,9.68
2018-12-25T08:47:14.798Z,9.45
2018-12-25T08:49:43.222Z,9.38
2018-12-25T08:52:11.898Z,9.50
2018-12-25T08:54:40.328Z,8.55
2018-12-25T08:57:08.749Z,8.93
2018-12-25T08:59:37.172Z,10.35
2018-12-25T09:02:05.876Z,9.33
2018-12-25T09:04:34.318Z,10.38
2018-12-25T09:07:02.966Z,10.13
2018-12-25T09:09:31.428Z,10.35
2018-12-25T09:12:00.126Z,10.58
2018-12-25T09:14:28.558Z,9.00
2018-12-25T09:16:56.994Z,10.10
2018-12-25T09:19:25.421Z,9.98
2018-12-25T09:21:53.857Z,9.80
2018-12-25T09:24:22.285Z,9.75
2018-12-25T09:26:50.726Z,9.43
2018-12-25T09:29:19.407Z,10.20
2018-12-25T09:31:47.837Z,8.58
2018-12-25T09:34:16.274Z,10.28
2018-12-25T09:36:44.952Z,9.55
2018-12-25T09:39:13.374Z,9.93
2018-12-25T09:41:41.800Z,9.73
2018-12-25T09:44:10.242Z,9.95
2018-12-25T09:46:38.654Z,9.68
2018-12-25T09:49:07.087Z,9.00
2018-12-25T09:51:35.514Z,10.08
2018-12-25T09:54:03.967Z,8.10
2018-12-25T09:56:32.410Z,9.95
2018-12-25T09:59:00.854Z,8.30
2018-12-25T10:01:29.331Z,9.83
2018-12-25T10:03:57.782Z,9.08
2018-12-25T10:06:26.466Z,9.40
2018-12-25T10:08:54.911Z,10.32
2018-12-25T10:11:23.757Z,10.75
2018-12-25T10:13:52.455Z,8.13
2018-12-25T10:16:20.879Z,9.25
2018-12-25T10:18:49.310Z,9.75
2018-12-25T10:21:17.747Z,10.00
2018-12-25T10:23:46.189Z,8.80
2018-12-25T10:26:14.623Z,6.30
2018-12-25T10:28:43.291Z,8.05
2018-12-25T10:31:11.758Z,9.35
2018-12-25T10:33:40.396Z,9.48
2018-12-25T10:36:08.849Z,7.67
2018-12-25T10:38:37.314Z,8.73
2018-12-25T10:41:05.746Z,8.73
2018-12-25T10:43:34.952Z,8.48
2018-12-25T10:46:03.504Z,9.40
2018-12-25T10:48:31.937Z,7.53
2018-12-25T10:51:00.507Z,8.70
2018-12-25T10:53:28.979Z,8.25
2018-12-25T10:55:57.407Z,9.30
2018-12-25T10:58:25.831Z,8.58
2018-12-25T11:00:54.343Z,8.05
2018-12-25T11:03:22.761Z,8.45
2018-12-25T11:05:51.194Z,7.37
2018-12-25T11:08:19.627Z,7.75
2018-12-25T11:10:48.061Z,8.48
2018-12-25T11:13:16.482Z,9.15
2018-12-25T11:15:44.918Z,8.00
2018-12-25T11:18:13.348Z,8.68
2018-12-25T11:20:43.862Z,7.40
2018-12-25T11:23:12.339Z,8.13
2018-12-25T11:25:40.766Z,6.78
2018-12-25T11:28:09.190Z,7.70
2018-12-25T11:30:37.626Z,5.97
2018-12-25T11:33:06.062Z,7.35
2018-12-25T11:35:34.706Z,7.53
2018-12-25T11:38:03.163Z,5.65
2018-12-25T11:40:31.594Z,8.48
2018-12-25T11:43:00.018Z,7.67
2018-12-25T11:45:28.526Z,6.67
2018-12-25T11:47:56.946Z,7.50
2018-12-25T11:50:25.073Z,7.53
2018-12-25T11:52:53.555Z,7.12
2018-12-25T11:55:21.988Z,8.60
2018-12-25T11:57:50.499Z,10.48
2018-12-25T12:00:18.938Z,7.60
2018-12-25T12:02:47.365Z,7.30
2018-12-25T12:05:15.797Z,7.65
2018-12-25T12:07:44.218Z,7.80
2018-12-25T12:10:12.655Z,7.50
2018-12-25T12:12:41.090Z,7.65
2018-12-25T12:15:09.509Z,9.25
2018-12-25T12:17:37.950Z,11.57
2018-12-25T12:20:07.042Z,7.67
2018-12-25T12:22:37.157Z,8.10
2018-12-25T12:25:05.788Z,7.47
2018-12-25T12:27:34.230Z,7.03
2018-12-25T12:30:02.694Z,8.00
2018-12-25T12:32:31.167Z,7.53
2018-12-25T12:34:59.590Z,7.37
2018-12-25T12:37:28.026Z,8.00
2018-12-25T12:39:56.450Z,7.50
2018-12-25T12:42:25.154Z,6.78
2018-12-25T12:44:55.051Z,7.00
2018-12-25T12:47:23.539Z,7.35
2018-12-25T12:49:51.963Z,6.33
2018-12-25T12:52:20.395Z,7.58
2018-12-25T12:54:48.814Z,5.90
2018-12-25T12:57:17.386Z,6.10
2018-12-25T12:59:45.887Z,6.78
2018-12-25T13:02:14.326Z,7.10
2018-12-25T13:04:42.824Z,6.47
2018-12-25T13:07:11.298Z,5.70
2018-12-25T13:09:39.792Z,6.28
2018-12-25T13:12:09.062Z,6.55
2018-12-25T13:14:37.472Z,6.42
2018-12-25T13:17:05.902Z,5.78
2018-12-25T13:19:34.322Z,6.78
2018-12-25T13:22:02.759Z,7.00
2018-12-25T13:24:31.172Z,5.72
2018-12-25T13:26:59.838Z,5.45
2018-12-25T13:29:28.274Z,5.75
2018-12-25T13:31:56.704Z,6.08
2018-12-25T13:34:25.348Z,7.28
2018-12-25T13:36:53.811Z,6.85
2018-12-25T13:39:22.456Z,6.87
2018-12-25T13:41:50.914Z,6.65
2018-12-25T13:44:19.355Z,6.83
2018-12-25T13:46:51.682Z,7.17
2018-12-25T13:49:17.931Z,6.75
2018-12-25T13:51:46.354Z,5.92
2018-12-25T13:54:15.013Z,6.40
2018-12-25T13:56:43.474Z,6.58
2018-12-25T13:59:11.913Z,5.72
2018-12-25T14:01:41.870Z,4.78
2018-12-25T14:04:10.314Z,6.70
2018-12-25T14:06:38.730Z,6.03
2018-12-25T14:09:07.437Z,6.53
2018-12-25T14:11:36.073Z,6.85
2018-12-25T14:14:04.561Z,6.45
2018-12-25T14:16:32.983Z,6.45
2018-12-25T14:19:01.407Z,7.05
2018-12-25T14:21:29.844Z,6.55
2018-12-25T14:23:58.346Z,6.95
2018-12-25T14:26:27.404Z,6.33
2018-12-25T14:28:56.609Z,7.35
2018-12-25T14:31:25.373Z,6.97
2018-12-25T14:33:53.926Z,7.10
2018-12-25T14:36:22.565Z,6.90
2018-12-25T14:38:51.042Z,7.22
2018-12-25T14:41:19.724Z,6.72
2018-12-25T14:43:48.150Z,6.72
2018-12-25T14:46:16.858Z,6.70
2018-12-25T14:48:45.311Z,5.87
2018-12-25T14:51:13.789Z,6.42
2018-12-25T14:53:42.211Z,6.67
2018-12-25T14:56:11.038Z,7.22
2018-12-25T14:58:39.707Z,6.50
2018-12-25T15:01:08.239Z,7.37
2018-12-25T15:03:37.133Z,6.28
2018-12-25T15:06:05.646Z,6.00
2018-12-25T15:08:34.282Z,6.90
2018-12-25T15:11:03.458Z,7.53
2018-12-25T15:13:31.894Z,6.25
2018-12-25T15:16:01.767Z,7.20
2018-12-25T15:18:30.486Z,6.53
2018-12-25T15:20:59.006Z,7.05
2018-12-25T15:23:29.116Z,6.22
2018-12-25T15:25:57.862Z,7.20
2018-12-25T15:28:26.519Z,6.78
2018-12-25T15:30:55.002Z,7.00
2018-12-25T15:33:25.101Z,7.37
2018-12-25T15:35:55.106Z,6.95
2018-12-25T15:38:23.664Z,8.03
2018-12-25T15:40:52.281Z,6.50
2018-12-25T15:43:20.909Z,7.78
2018-12-25T15:45:50.945Z,8.63
2018-12-25T15:48:19.672Z,8.03
2018-12-25T15:50:48.117Z,9.10
2018-12-25T15:53:16.798Z,8.35
2018-12-25T15:55:45.220Z,9.85
2018-12-25T15:58:15.098Z,8.08
2018-12-25T16:00:44.387Z,7.97
2018-12-25T16:03:13.730Z,10.55
2018-12-25T16:05:42.368Z,9.05
2018-12-25T16:08:11.039Z,9.75
2018-12-25T16:10:39.697Z,8.83
2018-12-25T16:13:08.143Z,9.28
2018-12-25T16:15:38.098Z,8.75
2018-12-25T16:18:06.585Z,11.12
2018-12-25T16:20:35.005Z,10.88
2018-12-25T16:23:03.448Z,10.95
2018-12-25T16:25:31.883Z,10.90
2018-12-25T16:28:00.311Z,10.05
2018-12-25T16:30:28.743Z,12.05
2018-12-25T16:32:57.173Z,12.60
2018-12-25T16:35:25.599Z,13.25
2018-12-25T16:37:54.258Z,12.80
2018-12-25T16:40:22.713Z,11.33
2018-12-25T16:42:51.150Z,10.70
2018-12-25T16:45:19.564Z,11.12
2018-12-25T16:47:48.267Z,11.53
2018-12-25T16:50:16.686Z,12.50
2018-12-25T16:52:45.129Z,11.10
2018-12-25T16:55:13.552Z,11.48
2018-12-25T16:57:41.987Z,11.43
2018-12-25T17:00:10.465Z,11.73
2018-12-25T17:02:38.984Z,11.93
2018-12-25T17:05:07.398Z,11.80
2018-12-25T17:07:35.847Z,12.37
2018-12-25T17:10:05.706Z,10.90
2018-12-25T17:12:34.137Z,11.90
2018-12-25T17:15:02.554Z,12.10
2018-12-25T17:17:30.984Z,12.68
2018-12-25T17:19:59.406Z,12.65
2018-12-25T17:22:27.826Z,14.90
2018-12-25T17:24:56.270Z,15.43
2018-12-25T17:27:24.695Z,17.12
2018-12-25T17:29:53.131Z,16.12
2018-12-25T17:32:21.806Z,15.70
2018-12-25T17:34:50.243Z,16.32
2018-12-25T17:37:18.705Z,16.17
2018-12-25T17:39:47.141Z,15.58
2018-12-25T17:42:15.364Z,15.68
2018-12-25T17:44:43.845Z,15.60
2018-12-25T17:47:12.307Z,14.90
2018-12-25T17:49:40.791Z,15.20
2018-12-25T17:52:09.206Z,16.57
2018-12-25T17:54:37.769Z,14.75
2018-12-25T17:57:06.261Z,17.00
2018-12-25T17:59:34.682Z,15.88
2018-12-25T18:02:03.117Z,15.10
2018-12-25T18:04:31.546Z,13.70
2018-12-25T18:07:00.199Z,13.88
2018-12-25T18:09:28.634Z,13.65
2018-12-25T18:11:57.058Z,12.98
2018-12-25T18:14:25.486Z,14.83
2018-12-25T18:16:53.909Z,14.47
2018-12-25T18:19:22.347Z,14.03
2018-12-25T18:21:50.766Z,14.05
2018-12-25T18:24:19.756Z,13.88
2018-12-25T18:26:48.193Z,13.18
2018-12-25T18:29:16.630Z,14.68
2018-12-25T18:31:45.051Z,13.08
2018-12-25T18:34:13.551Z,13.68
2018-12-25T18:36:41.965Z,14.55
2018-12-25T18:39:10.407Z,13.00
2018-12-25T18:41:38.831Z,14.68
2018-12-25T18:44:07.262Z,14.80
2018-12-25T18:46:35.685Z,12.68
2018-12-25T18:49:04.106Z,13.68
2018-12-25T18:51:32.547Z,14.40
2018-12-25T18:54:01.191Z,12.75
2018-12-25T18:56:29.662Z,13.88
2018-12-25T18:58:58.090Z,12.50
2018-12-25T19:01:27.039Z,12.73
2018-12-25T19:03:56.914Z,13.65
2018-12-25T19:06:25.351Z,13.45
2018-12-25T19:08:53.992Z,13.85
2018-12-25T19:11:22.461Z,13.45
2018-12-25T19:13:50.927Z,14.18
2018-12-25T19:16:19.539Z,15.20
2018-12-25T19:18:47.958Z,16.93
2018-12-25T19:21:16.381Z,13.62
2018-12-25T19:23:48.138Z,13.70
2018-12-25T19:26:16.570Z,13.28
2018-12-25T19:28:45.004Z,14.43
2018-12-25T19:31:13.433Z,14.00
2018-12-25T19:33:41.850Z,14.10
2018-12-25T19:36:10.287Z,15.28
2018-12-25T19:38:38.712Z,14.18
2018-12-25T19:41:07.146Z,14.10
2018-12-25T19:43:35.571Z,14.98
2018-12-25T19:46:04.021Z,14.03
2018-12-25T19:48:32.448Z,17.62
2018-12-25T19:51:01.188Z,15.60
2018-12-25T19:53:29.653Z,15.70
2018-12-25T19:55:58.099Z,15.40
2018-12-25T19:58:26.518Z,16.30
2018-12-25T20:00:54.952Z,14.95
2018-12-25T20:03:23.770Z,16.73
2018-12-25T20:06:06.882Z,14.33
2018-12-25T20:08:56.470Z,13.58
2018-12-25T20:11:39.446Z,12.88
2018-12-25T20:14:10.933Z,14.28
2018-12-25T20:17:03.377Z,14.10
2018-12-25T20:19:40.665Z,14.60
2018-12-25T20:22:33.396Z,18.62
2018-12-25T20:25:10.494Z,17.50
2018-12-25T20:27:56.780Z,18.05
2018-12-25T20:30:50.675Z,19.23
2018-12-25T20:33:37.082Z,18.00
2018-12-25T20:36:28.078Z,18.10
2018-12-25T20:39:14.710Z,18.70
2018-12-25T20:42:09.090Z,18.48
2018-12-25T20:44:56.937Z,19.10
2018-12-25T20:47:36.979Z,20.80
2018-12-25T20:50:27.794Z,19.10
2018-12-25T20:53:17.583Z,21.60
2018-12-25T20:55:57.866Z,20.90
2018-12-25T20:58:31.897Z,22.17
2018-12-25T21:01:18.671Z,22.73
2018-12-25T21:04:14.453Z,20.48
2018-12-25T21:06:45.945Z,19.10
2018-12-25T21:09:23.185Z,18.20
2018-12-25T21:12:09.781Z,18.35
2018-12-25T21:15:00.822Z,17.05
2018-12-25T21:18:04.144Z,16.25
2018-12-25T21:20:50.818Z,16.97
2018-12-25T21:23:55.714Z,17.73
2018-12-25T21:26:52.884Z,17.32
2018-12-25T21:29:21.450Z,16.10
2018-12-25T21:31:50.144Z,15.08
2018-12-25T21:34:19.061Z,18.02
2018-12-25T21:36:49.631Z,15.60
2018-12-25T21:39:18.058Z,16.57
2018-12-25T21:41:46.613Z,18.67
2018-12-25T21:44:15.189Z,15.85
2018-12-25T21:46:43.832Z,15.18
2018-12-25T21:49:13.433Z,17.02
2018-12-25T21:51:41.990Z,14.38
2018-12-25T21:54:10.494Z,15.83
2018-12-25T21:56:39.050Z,16.30
2018-12-25T21:59:07.864Z,13.95
2018-12-25T22:01:36.647Z,18.40
2018-12-25T22:04:05.396Z,16.10
2018-12-25T22:06:34.081Z,15.93
2018-12-25T22:09:02.546Z,16.73
2018-12-25T22:11:31.217Z,16.75
2018-12-25T22:13:59.633Z,17.75
2018-12-25T22:16:28.135Z,17.30
2018-12-25T22:18:56.561Z,17.65
2018-12-25T22:21:25.191Z,16.52
2018-12-25T22:23:53.898Z,16.15
2018-12-25T22:26:22.402Z,20.10
2018-12-25T22:28:50.848Z,18.67
2018-12-25T22:31:19.527Z,18.40
2018-12-25T22:33:48.217Z,17.35
2018-12-25T22:36:16.902Z,16.12
2018-12-25T22:38:45.310Z,18.40
2018-12-25T22:41:13.738Z,18.55
2018-12-25T22:43:42.148Z,17.27
2018-12-25T22:46:10.570Z,17.10
2018-12-25T22:48:39.065Z,17.70
2018-12-25T22:51:07.564Z,17.00
2018-12-25T22:53:36.021Z,17.02
2018-12-25T22:56:04.454Z,16.60
2018-12-25T22:58:32.866Z,18.20
2018-12-25T23:01:01.371Z,18.70
2018-12-25T23:03:29.794Z,15.72
2018-12-25T23:05:58.214Z,15.75
2018-12-25T23:08:26.856Z,17.60
2018-12-25T23:10:55.314Z,15.93
2018-12-25T23:13:23.733Z,15.45
2018-12-25T23:15:52.155Z,14.80
2018-12-25T23:18:20.577Z,14.47
2018-12-25T23:20:48.998Z,14.47
2018-12-25T23:23:17.418Z,15.78
2018-12-25T23:25:45.834Z,15.90
2018-12-25T23:28:14.262Z,13.88
2018-12-25T23:30:42.678Z,13.95
2018-12-25T23:33:11.110Z,16.02
2018-12-25T23:35:39.526Z,15.55
2018-12-25T23:38:07.961Z,13.78
2018-12-25T23:40:36.373Z,16.67
2018-12-25T23:43:04.797Z,15.60
2018-12-25T23:45:33.217Z,15.90
2018-12-25T23:48:01.899Z,17.85
2018-12-25T23:50:30.430Z,14.00
2018-12-25T23:52:58.857Z,14.13
2018-12-25T23:55:27.265Z,16.65
2018-12-25T23:57:55.946Z,16.00
